WetterOnline ( https://www.wetteronline.at )

Wetter aktuell Pforzheim

Aktuelles Wetter: Mühlacker (245m)

6-stündlich | Neueste Meldungen
Ortszeit Temperatur Wetter
Do, 18.07. 14:00 26.2° C wolkenlos
Do, 18.07. 8:00 13.3° C bewölkt
Do, 18.07. 2:00 11.7° C wolkig
Mi, 17.07. 20:00 24.5° C wolkenlos
Mi, 17.07. 14:00 24.7° C wolkig
Mi, 17.07. 8:00 13.6° C fast wolkenlos
Mi, 17.07. 2:00 10.2° C wolkig
Di, 16.07. 20:00 23.1° C leicht bewölkt
Ortszeit Temperatur Wetter
Do, 18.07. 18:30 26.5° C leicht bewölkt
Do, 18.07. 18:20 26.5° C leicht bewölkt
Do, 18.07. 18:10 26.7° C leicht bewölkt
Do, 18.07. 18:00 27.1° C leicht bewölkt
Do, 18.07. 17:50 27.1° C wolkig
Do, 18.07. 17:40 26.9° C wolkig
Do, 18.07. 17:30 26.6° C leicht bewölkt
Do, 18.07. 17:00 26.9° C leicht bewölkt
Do, 18.07. 16:30 26.7° C wolkig
Do, 18.07. 16:00 27.1° C wolkig
Do, 18.07. 15:30 27.3° C leicht bewölkt
Ortszeit Relative Feuchte Sichtweite
Do, 18.07. 14:00 36% 20 km
Do, 18.07. 8:00 93% 9 km
Do, 18.07. 2:00 95% 10 km
Mi, 17.07. 20:00 42% 28 km
Mi, 17.07. 14:00 42% 22 km
Mi, 17.07. 8:00 82% 13 km
Mi, 17.07. 2:00 94% 12 km
Di, 16.07. 20:00 38% 40 km
Ortszeit Relative Feuchte Sichtweite
Do, 18.07. 18:30 36% 40 km
Do, 18.07. 18:20 36% -
Do, 18.07. 18:10 36% -
Do, 18.07. 18:00 36% 29 km
Do, 18.07. 17:50 36% -
Do, 18.07. 17:40 36% -
Do, 18.07. 17:30 38% 40 km
Do, 18.07. 17:00 33% 28 km
Do, 18.07. 16:30 33% 35 km
Do, 18.07. 16:00 31% 18 km
Do, 18.07. 15:30 35% 30 km
Ortszeit Niederschlagsmenge Niederschlagsart
Do, 18.07. 14:00 0.1 l/m2 in 6 Std. -
Do, 18.07. 8:00 0.0 l/m2 in 12 Std. -
Do, 18.07. 2:00 0.0 l/m2 in 6 Std. -
Mi, 17.07. 20:00 0.0 l/m2 in 12 Std. -
Mi, 17.07. 14:00 0.0 l/m2 in 6 Std. -
Mi, 17.07. 8:00 0.0 l/m2 in 12 Std. -
Mi, 17.07. 2:00 0.0 l/m2 in 6 Std. -
Di, 16.07. 20:00 0.1 l/m2 in 12 Std. -
Ortszeit Niederschlagsmenge Niederschlagsart
Do, 18.07. 18:30 0.0 l/m2 in 1 Std. -
Do, 18.07. 18:20 keine Meldung -
Do, 18.07. 18:10 keine Meldung -
Do, 18.07. 18:00 0.0 l/m2 in 1 Std. -
Do, 18.07. 17:50 keine Meldung -
Do, 18.07. 17:40 keine Meldung -
Do, 18.07. 17:30 0.0 l/m2 in 1 Std. -
Do, 18.07. 17:00 0.1 l/m2 in 1 Std. -
Do, 18.07. 16:30 0.0 l/m2 in 1 Std. -
Do, 18.07. 16:00 0.0 l/m2 in 1 Std. -
Do, 18.07. 15:30 0.0 l/m2 in 1 Std. -
Ortszeit Stärke Spitze Richtung
km/h Bft. km/h Grad Sektor
Do, 18.07. 14:00 18 3 29 310° NW
Do, 18.07. 8:00 0 0 7 - -
Do, 18.07. 2:00 0 0 14 - -
Mi, 17.07. 20:00 7 2 30 340° N
Mi, 17.07. 14:00 11 2 25 310° NW
Mi, 17.07. 8:00 0 0 4 - -
Mi, 17.07. 2:00 0 0 7 - -
Di, 16.07. 20:00 7 2 24 330° NW
Ortszeit Stärke Spitze Richtung
km/h Bft. km/h Grad Sektor
Do, 18.07. 18:30 7 2 14 270° W
Do, 18.07. 18:20 7 2 - 270° W
Do, 18.07. 18:10 4 1 - 270° W
Do, 18.07. 18:00 7 2 22 240° SW
Do, 18.07. 17:50 7 2 - 240° SW
Do, 18.07. 17:40 7 2 - 270° W
Do, 18.07. 17:30 11 2 22 240° SW
Do, 18.07. 17:00 17 3 30 300° NW
Do, 18.07. 16:30 7 2 25 280° W
Do, 18.07. 16:00 13 3 31 290° W
Do, 18.07. 15:30 11 2 25 260° W
Ortszeit Untergrenze Bedeckung Gattung
total tief tief mittel hoch
Do, 18.07. 14:00 - 0/8 0/8 - - -
Do, 18.07. 8:00 6300 m 7/8 7/8 - - -
Do, 18.07. 2:00 10500 m 7/8 0/8 - - -
Mi, 17.07. 20:00 - 0/8 0/8 - - -
Mi, 17.07. 14:00 6900 m 6/8 6/8 - - -
Mi, 17.07. 8:00 7200 m 1/8 0/8 - - -
Mi, 17.07. 2:00 7800 m 8/8 0/8 - - -
Di, 16.07. 20:00 9000 m 8/8 0/8 - - -
Ortszeit Bedeckungsgrad in Achtel und Wolkenuntergrenze
Do, 18.07. 18:30 6(7200m)
Do, 18.07. 18:20 6(7200m)
Do, 18.07. 18:10 1(2100m) 5(7500m)
Do, 18.07. 18:00 5(7500m) 8(8100m)
Do, 18.07. 17:50 5(7500m) 8(8100m)
Do, 18.07. 17:40 1(2100m) 7(8100m)
Do, 18.07. 17:30 1(2100m) 6(8400m) 7(8700m)
Do, 18.07. 17:00 1(2400m) 8(8700m) 8(9000m)
Do, 18.07. 16:30 1(2100m) 8(4500m) 8(9000m)
Do, 18.07. 16:00 8(4500m) 8(5100m)
Do, 18.07. 15:30 2(2100m) 3(4800m)
Ortszeit Luftdruck NN (hPa) Tendenz (hPa in 3 Std.)
Do, 18.07. 14:00 1012 - 0,3
Do, 18.07. 8:00 1013 + 0,3
Do, 18.07. 2:00 1013 + 0,2
Mi, 17.07. 20:00 1012 - 0,9
Mi, 17.07. 14:00 1013 - 0,6
Mi, 17.07. 8:00 1015 - 0,4
Mi, 17.07. 2:00 1017 - 0,1
Di, 16.07. 20:00 1015 - 0,6
Ortszeit Luftdruck NN (hPa) Tendenz (hPa in 3 Std.)
Do, 18.07. 18:30 1011 - 0,7
Do, 18.07. 18:20 1011 keine Meldung
Do, 18.07. 18:10 1011 keine Meldung
Do, 18.07. 18:00 1011 - 0,7
Do, 18.07. 17:50 1011 keine Meldung
Do, 18.07. 17:40 1011 keine Meldung
Do, 18.07. 17:30 1011 - 0,7
Do, 18.07. 17:00 1011 - 0,6
Do, 18.07. 16:30 1012 - 0,7
Do, 18.07. 16:00 1012 - 0,6
Do, 18.07. 15:30 1012 - 0,6
Ortszeit Schneehöhe (cm)
Do, 18.07. 14:00 -
Do, 18.07. 8:00 -
Do, 18.07. 2:00 -
Mi, 17.07. 20:00 -
Mi, 17.07. 14:00 -
Mi, 17.07. 8:00 -
Mi, 17.07. 2:00 -
Di, 16.07. 20:00 -
Ortszeit Schneehöhe (cm)
Do, 18.07. 18:30 -
Do, 18.07. 18:20 -
Do, 18.07. 18:10 -
Do, 18.07. 18:00 -
Do, 18.07. 17:50 -
Do, 18.07. 17:40 -
Do, 18.07. 17:30 -
Do, 18.07. 17:00 -
Do, 18.07. 16:30 -
Do, 18.07. 16:00 -
Do, 18.07. 15:30 -
Link zu dieser Seite / Seite empfehlen

Das Wetter in ...